createdAt,value
2023-04-25T00:01:44.140Z,9.35
2023-04-25T00:03:47.419Z,9.33
2023-04-25T00:05:50.129Z,9.42
2023-04-25T00:07:52.947Z,9.48
2023-04-25T00:09:55.114Z,9.38
2023-04-25T00:11:57.366Z,9.50
2023-04-25T00:14:01.034Z,9.41
2023-04-25T00:16:03.770Z,9.50
2023-04-25T00:18:07.031Z,9.36
2023-04-25T00:20:11.031Z,9.26
2023-04-25T00:22:14.537Z,9.25
2023-04-25T00:24:16.574Z,9.39
2023-04-25T00:26:18.705Z,9.36
2023-04-25T00:28:21.006Z,9.37
2023-04-25T00:30:23.470Z,9.23
2023-04-25T00:32:25.794Z,9.21
2023-04-25T00:34:27.932Z,9.08
2023-04-25T00:36:30.208Z,9.12
2023-04-25T00:38:32.270Z,8.94
2023-04-25T00:40:35.177Z,9.01
2023-04-25T00:42:38.378Z,8.94
2023-04-25T00:44:41.117Z,9.00
2023-04-25T00:46:44.018Z,8.80
2023-04-25T00:48:46.590Z,8.96
2023-04-25T00:50:55.180Z,8.88
2023-04-25T00:52:57.537Z,8.87
2023-04-25T00:55:00.596Z,8.86
2023-04-25T00:57:02.684Z,8.80
2023-04-25T00:59:04.973Z,8.77
2023-04-25T01:01:08.058Z,8.65
2023-04-25T01:03:14.023Z,8.60
2023-04-25T01:05:16.086Z,8.73
2023-04-25T01:07:18.341Z,8.82
2023-04-25T01:09:21.513Z,8.65
2023-04-25T01:11:23.442Z,8.73
2023-04-25T01:13:25.377Z,8.72
2023-04-25T01:15:27.369Z,8.54
2023-04-25T01:17:30.336Z,8.62
2023-04-25T01:19:32.617Z,8.65
2023-04-25T01:21:34.620Z,8.37
2023-04-25T01:23:37.188Z,8.47
2023-04-25T01:25:39.878Z,8.49
2023-04-25T01:27:42.124Z,8.49
2023-04-25T01:29:44.371Z,8.38
2023-04-25T01:31:46.861Z,8.37
2023-04-25T01:33:49.263Z,8.51
2023-04-25T01:35:51.502Z,8.47
2023-04-25T01:37:53.545Z,8.48
2023-04-25T01:39:55.821Z,8.49
2023-04-25T01:41:58.521Z,8.39
2023-04-25T01:44:01.216Z,8.48
2023-04-25T01:46:03.521Z,8.45
2023-04-25T01:48:05.978Z,8.38
2023-04-25T01:50:09.376Z,8.45
2023-04-25T01:52:11.384Z,8.36
2023-04-25T01:54:14.869Z,8.42
2023-04-25T01:56:16.910Z,8.37
2023-04-25T01:58:18.885Z,8.29
2023-04-25T02:00:21.145Z,8.24
2023-04-25T02:02:23.503Z,8.26
2023-04-25T02:04:25.589Z,8.21
2023-04-25T02:06:27.497Z,8.24
2023-04-25T02:08:29.282Z,8.18
2023-04-25T02:10:31.088Z,8.17
2023-04-25T02:12:33.274Z,8.08
2023-04-25T02:14:35.183Z,8.10
2023-04-25T02:18:38.705Z,8.03
2023-04-25T02:20:40.507Z,8.03
2023-04-25T02:22:43.079Z,8.06
2023-04-25T02:24:44.840Z,8.11
2023-04-25T02:26:47.887Z,8.13
2023-04-25T02:28:49.690Z,8.16
2023-04-25T02:30:51.485Z,7.97
2023-04-25T02:32:53.292Z,8.09
2023-04-25T02:34:55.198Z,7.97
2023-04-25T02:36:57.311Z,7.98
2023-04-25T02:38:59.074Z,7.95
2023-04-25T02:41:01.145Z,7.97
2023-04-25T02:43:05.221Z,8.02
2023-04-25T02:45:07.692Z,7.89
2023-04-25T02:47:09.522Z,7.96
2023-04-25T02:49:11.354Z,7.89
2023-04-25T02:51:13.644Z,7.55
2023-04-25T02:53:15.525Z,7.74
2023-04-25T02:55:17.260Z,7.86
2023-04-25T02:57:19.021Z,7.88
2023-04-25T02:59:20.715Z,7.81
2023-04-25T03:01:22.665Z,7.82
2023-04-25T03:03:24.773Z,7.85
2023-04-25T03:05:26.777Z,7.75
2023-04-25T03:07:28.519Z,7.77
2023-04-25T03:09:30.253Z,7.79
2023-04-25T03:11:32.032Z,7.83
2023-04-25T03:13:33.805Z,7.73
2023-04-25T03:15:36.714Z,7.74
2023-04-25T03:17:38.556Z,7.76
2023-04-25T03:19:40.369Z,7.56
2023-04-25T03:21:42.148Z,7.62
2023-04-25T03:23:46.724Z,7.60
2023-04-25T03:25:48.531Z,7.70
2023-04-25T03:27:50.640Z,7.62
2023-04-25T03:29:52.465Z,7.64
2023-04-25T03:31:54.269Z,7.62
2023-04-25T03:33:56.072Z,7.60
2023-04-25T03:35:57.852Z,7.57
2023-04-25T03:37:59.630Z,7.55
2023-04-25T03:40:01.556Z,7.61
2023-04-25T03:42:04.014Z,7.56
2023-04-25T03:44:05.890Z,7.56
2023-04-25T03:46:09.925Z,7.43
2023-04-25T03:48:12.747Z,7.41
2023-04-25T03:50:14.582Z,7.40
2023-04-25T03:52:16.725Z,7.36
2023-04-25T03:54:21.310Z,7.35
2023-04-25T03:56:23.160Z,7.46
2023-04-25T03:58:25.528Z,7.43
2023-04-25T04:00:27.725Z,7.31
2023-04-25T04:02:29.652Z,7.37
2023-04-25T04:04:32.108Z,7.43
2023-04-25T04:06:34.266Z,7.41
2023-04-25T04:08:36.260Z,7.36
2023-04-25T04:10:40.274Z,7.33
2023-04-25T04:12:42.107Z,7.31
2023-04-25T04:14:44.214Z,7.35
2023-04-25T04:16:46.314Z,7.32
2023-04-25T04:18:48.059Z,7.32
2023-04-25T04:20:49.771Z,7.26
2023-04-25T04:22:51.466Z,7.14
2023-04-25T04:24:53.284Z,7.23
2023-04-25T04:26:55.155Z,7.27
2023-04-25T04:28:56.982Z,7.22
2023-04-25T04:30:58.860Z,7.09
2023-04-25T04:33:02.080Z,7.22
2023-04-25T04:35:05.379Z,7.20
2023-04-25T04:37:08.247Z,7.17
2023-04-25T04:39:10.735Z,7.16
2023-04-25T04:41:12.492Z,7.18
2023-04-25T04:43:14.374Z,7.17
2023-04-25T04:45:17.395Z,7.14
2023-04-25T04:47:21.382Z,7.21
2023-04-25T04:49:23.228Z,7.22
2023-04-25T04:51:24.942Z,7.26
2023-04-25T04:53:26.790Z,7.26
2023-04-25T04:55:28.496Z,7.11
2023-04-25T04:57:30.799Z,7.13
2023-04-25T04:59:32.570Z,7.17
2023-04-25T05:01:36.985Z,7.15
2023-04-25T05:03:38.969Z,7.19
2023-04-25T05:05:41.918Z,7.21
2023-04-25T05:07:43.745Z,7.22
2023-04-25T05:09:46.018Z,7.09
2023-04-25T05:11:50.230Z,7.05
2023-04-25T05:13:53.861Z,6.98
2023-04-25T05:15:56.035Z,6.91
2023-04-25T05:17:57.874Z,7.03
2023-04-25T05:20:00.399Z,6.81
2023-04-25T05:22:03.061Z,6.80
2023-04-25T05:24:08.527Z,6.85
2023-04-25T05:26:15.113Z,6.85
2023-04-25T05:28:19.355Z,6.96
2023-04-25T05:30:21.843Z,6.93
2023-04-25T05:32:23.732Z,6.93
2023-04-25T05:34:25.551Z,6.94
2023-04-25T05:36:27.411Z,6.99
2023-04-25T05:38:29.166Z,6.92
2023-04-25T05:40:30.969Z,7.02
2023-04-25T05:42:32.688Z,7.04
2023-04-25T05:44:34.438Z,6.97
2023-04-25T05:46:36.384Z,7.02
2023-04-25T05:48:41.419Z,7.00
2023-04-25T05:50:43.222Z,7.01
2023-04-25T05:52:45.060Z,7.00
2023-04-25T05:54:46.891Z,7.02
2023-04-25T05:56:48.720Z,6.99
2023-04-25T05:58:50.520Z,6.92
2023-04-25T06:00:52.780Z,6.90
2023-04-25T06:02:54.796Z,6.93
2023-04-25T06:04:56.821Z,7.02
2023-04-25T06:06:58.802Z,6.92
2023-04-25T06:09:00.645Z,7.00
2023-04-25T06:11:02.631Z,7.11
2023-04-25T06:13:05.565Z,7.06
2023-04-25T06:15:20.036Z,7.06
2023-04-25T06:17:29.665Z,7.08
2023-04-25T06:19:31.524Z,7.16
2023-04-25T06:21:33.477Z,7.09
2023-04-25T06:23:35.641Z,7.12
2023-04-25T06:25:37.440Z,7.22
2023-04-25T06:27:39.289Z,7.24
2023-04-25T06:29:41.196Z,7.30
2023-04-25T06:31:43.250Z,7.38
2023-04-25T06:33:45.204Z,7.33
2023-04-25T06:35:47.107Z,7.37
2023-04-25T06:37:49.024Z,7.22
2023-04-25T06:39:53.570Z,7.29
2023-04-25T06:41:55.715Z,7.38
2023-04-25T06:43:57.701Z,7.36
2023-04-25T06:45:59.800Z,7.44
2023-04-25T06:48:01.843Z,7.31
2023-04-25T06:50:10.028Z,7.40
2023-04-25T06:52:12.081Z,7.41
2023-04-25T06:54:14.098Z,7.49
2023-04-25T06:56:17.665Z,7.59
2023-04-25T06:58:20.055Z,7.55
2023-04-25T07:00:22.301Z,7.42
2023-04-25T07:02:24.401Z,7.55
2023-04-25T07:04:27.134Z,7.53
2023-04-25T07:06:29.564Z,7.69
2023-04-25T07:08:31.711Z,7.66
2023-04-25T07:10:33.672Z,7.66
2023-04-25T07:12:35.570Z,7.73
2023-04-25T07:14:37.407Z,7.81
2023-04-25T07:16:39.348Z,7.87
2023-04-25T07:18:41.385Z,7.95
2023-04-25T07:20:46.241Z,7.99
2023-04-25T07:22:48.232Z,7.86
2023-04-25T07:24:51.447Z,7.99
2023-04-25T07:26:53.342Z,8.06
2023-04-25T07:28:55.848Z,8.11
2023-04-25T07:30:59.217Z,8.20
2023-04-25T07:33:03.362Z,8.17
2023-04-25T07:35:06.010Z,8.20
2023-04-25T07:37:08.088Z,8.13
2023-04-25T07:39:10.514Z,8.26
2023-04-25T07:41:12.407Z,8.29
2023-04-25T07:43:17.752Z,8.30
2023-04-25T07:45:19.753Z,8.22
2023-04-25T07:47:21.852Z,8.27
2023-04-25T07:49:23.869Z,8.39
2023-04-25T07:51:25.832Z,8.37
2023-04-25T07:53:27.986Z,8.46
2023-04-25T07:55:30.047Z,8.45
2023-04-25T07:57:33.596Z,8.51
2023-04-25T07:59:36.132Z,8.55
2023-04-25T08:01:43.448Z,8.55
2023-04-25T08:03:45.923Z,8.68
2023-04-25T08:05:48.291Z,8.62
2023-04-25T08:07:51.136Z,8.60
2023-04-25T08:10:07.429Z,8.66
2023-04-25T08:14:32.618Z,8.79
2023-04-25T08:17:13.418Z,8.81
2023-04-25T08:19:15.373Z,8.88
2023-04-25T08:21:17.291Z,8.90
2023-04-25T08:23:19.426Z,8.92
2023-04-25T08:25:21.510Z,8.91
2023-04-25T08:27:25.197Z,9.00
2023-04-25T08:29:32.183Z,9.02
2023-04-25T08:31:34.742Z,9.13
2023-04-25T08:33:38.123Z,9.09
2023-04-25T08:35:40.282Z,9.22
2023-04-25T08:37:43.216Z,9.19
2023-04-25T08:39:46.307Z,9.31
2023-04-25T08:41:48.971Z,9.22
2023-04-25T08:43:52.620Z,9.35
2023-04-25T08:45:55.895Z,9.50
2023-04-25T08:47:59.064Z,9.49
2023-04-25T08:50:19.514Z,9.53
2023-04-25T08:52:25.697Z,9.61
2023-04-25T08:54:35.349Z,9.59
2023-04-25T08:56:40.209Z,9.65
2023-04-25T08:58:42.314Z,9.83
2023-04-25T09:00:44.387Z,9.88
2023-04-25T09:02:48.253Z,9.76
2023-04-25T09:04:51.186Z,9.62
2023-04-25T09:06:53.364Z,10.00
2023-04-25T09:08:55.423Z,10.02
2023-04-25T09:10:57.486Z,10.01
2023-04-25T09:13:18.598Z,10.16
2023-04-25T09:15:21.027Z,10.19
2023-04-25T09:17:23.251Z,10.20
2023-04-25T09:19:39.592Z,10.32
2023-04-25T09:22:20.647Z,10.39
2023-04-25T09:24:38.141Z,10.48
2023-04-25T09:26:40.220Z,10.63
2023-04-25T09:28:44.169Z,10.73
2023-04-25T09:30:47.503Z,10.94
2023-04-25T09:32:49.747Z,11.05
2023-04-25T09:34:54.664Z,11.12
2023-04-25T09:36:57.181Z,11.16
2023-04-25T09:39:02.080Z,11.23
2023-04-25T09:43:35.517Z,11.36
2023-04-25T09:45:47.033Z,11.65
2023-04-25T09:47:49.706Z,11.54
2023-04-25T09:50:33.368Z,11.60
2023-04-25T09:52:35.766Z,11.67
2023-04-25T09:54:38.171Z,11.60
2023-04-25T09:56:40.899Z,11.68
2023-04-25T09:58:43.435Z,11.58
2023-04-25T10:00:46.238Z,11.76
2023-04-25T10:02:50.093Z,11.82
2023-04-25T10:04:56.530Z,11.82
2023-04-25T10:07:00.819Z,11.92
2023-04-25T10:09:06.806Z,12.24
2023-04-25T10:11:10.267Z,12.22
2023-04-25T10:13:12.900Z,12.49
2023-04-25T10:15:18.890Z,12.60
2023-04-25T10:17:21.741Z,12.79
2023-04-25T10:19:25.235Z,12.84
2023-04-25T10:21:32.802Z,12.95
2023-04-25T10:23:35.908Z,13.12
2023-04-25T10:25:38.409Z,13.29
2023-04-25T10:27:41.457Z,13.15
2023-04-25T10:29:45.286Z,13.21
2023-04-25T10:31:48.983Z,13.27
2023-04-25T10:33:51.464Z,13.03
2023-04-25T10:35:59.433Z,13.10
2023-04-25T10:38:06.592Z,12.98
2023-04-25T10:40:13.977Z,12.86
2023-04-25T10:42:16.322Z,12.90
2023-04-25T10:44:18.356Z,13.00
2023-04-25T10:46:24.136Z,12.88
2023-04-25T10:48:28.187Z,12.87
2023-04-25T10:50:41.209Z,12.79
2023-04-25T10:52:43.884Z,12.88
2023-04-25T10:54:52.561Z,12.88
2023-04-25T10:56:55.008Z,12.99
2023-04-25T10:59:07.786Z,13.03
2023-04-25T11:01:10.619Z,13.16
2023-04-25T11:03:19.494Z,13.48
2023-04-25T11:05:25.502Z,13.48
2023-04-25T11:07:39.051Z,13.47
2023-04-25T11:09:44.087Z,13.62
2023-04-25T11:11:56.665Z,13.73
2023-04-25T11:13:59.694Z,13.65
2023-04-25T11:16:12.120Z,13.53
2023-04-25T11:18:18.848Z,13.54
2023-04-25T11:20:23.174Z,13.37
2023-04-25T11:22:25.538Z,13.62
2023-04-25T11:24:33.767Z,13.62
2023-04-25T11:26:39.866Z,13.60
2023-04-25T11:28:42.354Z,13.89
2023-04-25T11:30:51.406Z,14.09
2023-04-25T11:32:53.957Z,14.14
2023-04-25T11:34:56.410Z,14.33
2023-04-25T11:36:59.628Z,14.43
2023-04-25T11:39:02.657Z,14.63
2023-04-25T11:41:04.854Z,14.60
2023-04-25T11:43:07.088Z,14.94
2023-04-25T11:45:10.925Z,15.11
2023-04-25T11:47:13.211Z,15.21
2023-04-25T11:49:17.441Z,15.44
2023-04-25T11:51:19.487Z,15.55
2023-04-25T11:53:22.163Z,15.55
2023-04-25T11:55:24.649Z,15.56
2023-04-25T11:57:27.680Z,15.59
2023-04-25T11:59:30.340Z,15.42
2023-04-25T12:01:35.284Z,15.43
2023-04-25T12:03:47.761Z,15.28
2023-04-25T12:05:51.550Z,14.98
2023-04-25T12:07:53.912Z,15.12
2023-04-25T12:10:10.050Z,15.32
2023-04-25T12:12:12.482Z,15.20
2023-04-25T12:14:28.335Z,15.26
2023-04-25T12:16:31.533Z,15.33
2023-04-25T12:18:37.525Z,15.37
2023-04-25T12:20:40.671Z,15.53
2023-04-25T12:22:48.031Z,15.63
2023-04-25T12:24:50.522Z,15.67
2023-04-25T12:27:00.327Z,15.73
2023-04-25T12:29:02.810Z,15.63
2023-04-25T12:31:07.095Z,15.64
2023-04-25T12:33:09.485Z,15.47
2023-04-25T12:35:12.055Z,15.38
2023-04-25T12:37:14.501Z,15.26
2023-04-25T12:39:19.291Z,14.97
2023-04-25T12:41:21.735Z,15.23
2023-04-25T12:43:27.091Z,15.34
2023-04-25T12:45:29.693Z,15.14
2023-04-25T12:47:31.845Z,15.23
2023-04-25T12:49:34.180Z,15.28
2023-04-25T12:51:37.414Z,15.20
2023-04-25T12:53:41.541Z,15.14
2023-04-25T12:55:43.761Z,15.34
2023-04-25T12:57:46.073Z,15.31
2023-04-25T12:59:48.087Z,15.38
2023-04-25T13:01:50.810Z,15.61
2023-04-25T13:03:53.431Z,15.53
2023-04-25T13:05:55.927Z,15.59
2023-04-25T13:07:58.459Z,15.68
2023-04-25T13:10:18.486Z,15.57
2023-04-25T13:12:20.919Z,15.42
2023-04-25T13:14:22.989Z,15.08
2023-04-25T13:16:25.053Z,15.20
2023-04-25T13:18:27.947Z,15.13
2023-04-25T13:20:33.861Z,15.02
2023-04-25T13:22:38.539Z,14.85
2023-04-25T13:24:40.932Z,14.99
2023-04-25T13:26:43.452Z,15.07
2023-04-25T13:28:45.593Z,14.95
2023-04-25T13:30:49.528Z,14.85
2023-04-25T13:32:51.971Z,14.86
2023-04-25T13:34:54.602Z,14.79
2023-04-25T13:36:57.212Z,14.87
2023-04-25T13:38:59.508Z,14.33
2023-04-25T13:41:02.548Z,14.41
2023-04-25T13:43:04.495Z,14.77
2023-04-25T13:45:07.521Z,14.94
2023-04-25T13:47:09.595Z,14.63
2023-04-25T13:49:13.582Z,15.02
2023-04-25T13:51:17.712Z,14.82
2023-04-25T13:53:19.788Z,14.95
2023-04-25T13:55:22.162Z,14.91
2023-04-25T13:57:24.554Z,14.84
2023-04-25T13:59:28.353Z,15.01
2023-04-25T14:01:32.716Z,14.63
2023-04-25T14:03:35.233Z,14.44
2023-04-25T14:05:41.491Z,14.56
2023-04-25T14:07:44.073Z,14.60
2023-04-25T14:09:47.684Z,14.64
2023-04-25T14:11:49.922Z,14.69
2023-04-25T14:13:52.626Z,14.63
2023-04-25T14:15:55.315Z,14.60
2023-04-25T14:17:57.333Z,14.53
2023-04-25T14:20:37.182Z,14.20
2023-04-25T14:22:42.796Z,14.20
2023-04-25T14:24:45.116Z,14.43
2023-04-25T14:26:47.687Z,14.45
2023-04-25T14:28:50.331Z,14.61
2023-04-25T14:31:09.830Z,14.61
2023-04-25T14:33:17.683Z,14.66
2023-04-25T14:35:30.685Z,14.56
2023-04-25T14:37:33.791Z,14.61
2023-04-25T14:39:37.293Z,14.63
2023-04-25T14:41:39.622Z,14.77
2023-04-25T14:43:43.137Z,15.05
2023-04-25T14:45:45.283Z,15.41
2023-04-25T14:47:48.407Z,15.78
2023-04-25T14:49:55.527Z,16.09
2023-04-25T14:52:01.370Z,16.35
2023-04-25T14:54:09.981Z,16.33
2023-04-25T14:56:12.540Z,16.36
2023-04-25T14:58:15.039Z,16.25
2023-04-25T15:00:18.954Z,16.13
2023-04-25T15:02:37.959Z,16.24
2023-04-25T15:04:49.298Z,15.90
2023-04-25T15:07:07.773Z,15.84
2023-04-25T15:09:12.407Z,15.43
2023-04-25T15:11:14.956Z,15.37
2023-04-25T15:13:19.691Z,15.10
2023-04-25T15:15:26.965Z,14.78
2023-04-25T15:17:32.406Z,14.65
2023-04-25T15:19:35.353Z,14.74
2023-04-25T15:21:37.928Z,14.64
2023-04-25T15:23:40.226Z,14.78
2023-04-25T15:25:43.095Z,14.79
2023-04-25T15:27:47.839Z,14.66
2023-04-25T15:29:51.522Z,14.50
2023-04-25T15:32:03.381Z,14.08
2023-04-25T15:34:10.596Z,14.24
2023-04-25T15:36:29.501Z,14.36
2023-04-25T15:38:35.274Z,14.31
2023-04-25T15:40:43.954Z,14.14
2023-04-25T15:42:48.205Z,14.26
2023-04-25T15:44:50.522Z,14.40
2023-04-25T15:47:03.147Z,14.35
2023-04-25T15:49:05.746Z,14.46
2023-04-25T15:51:13.865Z,14.59
2023-04-25T15:53:16.620Z,14.66
2023-04-25T15:55:22.059Z,14.80
2023-04-25T15:57:24.113Z,14.68
2023-04-25T15:59:26.090Z,14.52
2023-04-25T16:01:31.223Z,14.55
2023-04-25T16:03:36.378Z,14.27
2023-04-25T16:05:38.832Z,14.16
2023-04-25T16:07:43.276Z,14.34
2023-04-25T16:09:46.975Z,14.48
2023-04-25T16:11:49.683Z,14.54
2023-04-25T16:13:52.051Z,14.52
2023-04-25T16:15:54.414Z,14.25
2023-04-25T16:17:59.259Z,13.94
2023-04-25T16:20:10.821Z,14.12
2023-04-25T16:22:22.012Z,14.39
2023-04-25T16:24:24.011Z,14.29
2023-04-25T16:26:26.478Z,13.99
2023-04-25T16:28:28.618Z,14.38
2023-04-25T16:30:41.045Z,14.36
2023-04-25T16:32:46.608Z,14.49
2023-04-25T16:34:49.182Z,14.79
2023-04-25T16:37:20.887Z,14.81
2023-04-25T16:39:23.496Z,14.79
2023-04-25T16:41:25.778Z,14.48
2023-04-25T16:43:27.888Z,14.68
2023-04-25T16:45:39.593Z,14.64
2023-04-25T16:47:46.561Z,14.44
2023-04-25T16:49:49.366Z,14.58
2023-04-25T16:51:52.217Z,14.33
2023-04-25T16:54:14.957Z,14.37
2023-04-25T16:56:17.413Z,14.24
2023-04-25T16:58:20.717Z,14.52
2023-04-25T17:00:32.627Z,14.69
2023-04-25T17:03:13.455Z,14.55
2023-04-25T17:05:42.125Z,14.64
2023-04-25T17:07:51.170Z,14.52
2023-04-25T17:10:00.270Z,14.47
2023-04-25T17:12:38.083Z,14.66
2023-04-25T17:17:51.137Z,14.64
2023-04-25T17:20:43.860Z,14.52
2023-04-25T17:22:58.738Z,14.51
2023-04-25T17:27:40.703Z,14.25
2023-04-25T17:30:03.586Z,14.33
2023-04-25T17:32:27.211Z,14.32
2023-04-25T17:34:36.406Z,14.07
2023-04-25T17:36:39.842Z,14.09
2023-04-25T17:38:42.824Z,13.95
2023-04-25T17:40:45.132Z,14.00
2023-04-25T17:42:47.394Z,14.04
2023-04-25T17:44:49.957Z,14.08
2023-04-25T17:46:52.333Z,13.94
2023-04-25T17:48:54.878Z,13.99
2023-04-25T17:50:58.828Z,13.93
2023-04-25T17:53:04.043Z,14.00
2023-04-25T17:55:07.535Z,13.98
2023-04-25T17:57:09.932Z,13.77
2023-04-25T17:59:12.258Z,13.93
2023-04-25T18:01:15.135Z,13.92
2023-04-25T18:03:18.253Z,13.76
2023-04-25T18:05:21.084Z,13.81
2023-04-25T18:07:23.901Z,13.78
2023-04-25T18:09:26.542Z,13.70
2023-04-25T18:11:30.259Z,13.48
2023-04-25T18:13:35.054Z,13.62
2023-04-25T18:15:37.133Z,13.50
2023-04-25T18:17:40.841Z,13.57
2023-04-25T18:19:43.040Z,13.71
2023-04-25T18:21:46.237Z,13.38
2023-04-25T18:23:48.561Z,13.58
2023-04-25T18:25:52.573Z,13.61
2023-04-25T18:27:54.968Z,13.45
2023-04-25T18:29:58.655Z,13.68
2023-04-25T18:32:01.192Z,13.65
2023-04-25T18:34:03.588Z,13.71
2023-04-25T18:36:08.475Z,13.64
2023-04-25T18:38:10.683Z,13.65
2023-04-25T18:40:16.034Z,13.70
2023-04-25T18:42:20.231Z,13.56
2023-04-25T18:44:22.641Z,13.47
2023-04-25T18:46:24.987Z,13.28
2023-04-25T18:48:28.039Z,13.31
2023-04-25T18:50:32.570Z,13.45
2023-04-25T18:52:34.737Z,13.18
2023-04-25T18:54:37.714Z,13.27
2023-04-25T18:56:39.867Z,13.35
2023-04-25T18:58:43.830Z,13.34
2023-04-25T19:00:49.474Z,13.16
2023-04-25T19:02:56.258Z,13.26
2023-04-25T19:04:59.171Z,13.04
2023-04-25T19:07:01.370Z,12.90
2023-04-25T19:09:03.268Z,12.91
2023-04-25T19:11:18.110Z,13.01
2023-04-25T19:13:22.754Z,12.86
2023-04-25T19:15:24.522Z,12.82
2023-04-25T19:17:28.409Z,13.01
2023-04-25T19:19:32.712Z,12.91
2023-04-25T19:21:35.287Z,12.78
2023-04-25T19:23:37.608Z,12.79
2023-04-25T19:25:39.756Z,12.79
2023-04-25T19:27:42.727Z,12.81
2023-04-25T19:29:48.470Z,12.75
2023-04-25T19:31:50.633Z,12.89
2023-04-25T19:33:52.889Z,12.87
2023-04-25T19:35:55.586Z,12.71
2023-04-25T19:37:57.748Z,12.90
2023-04-25T19:40:02.980Z,12.73
2023-04-25T19:42:06.867Z,12.42
2023-04-25T19:44:09.883Z,12.49
2023-04-25T19:46:12.151Z,12.48
2023-04-25T19:48:14.361Z,12.50
2023-04-25T19:50:16.437Z,11.95
2023-04-25T19:52:18.606Z,11.83
2023-04-25T19:54:22.804Z,11.96
2023-04-25T19:56:26.579Z,12.11
2023-04-25T19:58:30.042Z,11.99
2023-04-25T20:00:32.333Z,12.01
2023-04-25T20:02:35.933Z,11.87
2023-04-25T20:04:38.906Z,11.72
2023-04-25T20:06:40.776Z,11.81
2023-04-25T20:08:43.667Z,11.61
2023-04-25T20:10:45.821Z,11.52
2023-04-25T20:12:47.718Z,11.67
2023-04-25T20:14:49.688Z,11.64
2023-04-25T20:16:51.743Z,11.59
2023-04-25T20:18:54.570Z,11.65
2023-04-25T20:20:57.059Z,11.51
2023-04-25T20:22:59.058Z,11.49
2023-04-25T20:25:01.331Z,11.60
2023-04-25T20:27:03.418Z,11.64
2023-04-25T20:29:06.760Z,11.70
2023-04-25T20:31:10.961Z,11.57
2023-04-25T20:33:13.262Z,11.60
2023-04-25T20:35:15.210Z,11.39
2023-04-25T20:37:17.293Z,11.38
2023-04-25T20:39:20.162Z,11.27
2023-04-25T20:41:22.668Z,11.47
2023-04-25T20:43:25.956Z,11.28
2023-04-25T20:45:32.123Z,11.28
2023-04-25T20:47:35.085Z,11.33
2023-04-25T20:49:37.113Z,11.39
2023-04-25T20:51:39.149Z,11.36
2023-04-25T20:53:41.104Z,11.26
2023-04-25T20:55:43.312Z,11.26
2023-04-25T20:57:45.141Z,11.35
2023-04-25T20:59:48.264Z,11.41
2023-04-25T21:01:51.032Z,11.31
2023-04-25T21:03:53.224Z,11.25
2023-04-25T21:05:55.697Z,11.16
2023-04-25T21:07:58.119Z,11.07
2023-04-25T21:09:59.974Z,11.13
2023-04-25T21:12:04.601Z,11.11
2023-04-25T21:14:07.878Z,11.08
2023-04-25T21:16:09.716Z,11.12
2023-04-25T21:18:11.837Z,11.17
2023-04-25T21:20:17.863Z,11.27
2023-04-25T21:22:20.003Z,11.15
2023-04-25T21:24:22.164Z,11.35
2023-04-25T21:26:24.338Z,11.19
2023-04-25T21:28:26.411Z,11.17
2023-04-25T21:30:28.859Z,11.10
2023-04-25T21:32:31.004Z,11.43
2023-04-25T21:34:32.960Z,11.42
2023-04-25T21:36:34.853Z,11.33
2023-04-25T21:38:36.924Z,11.19
2023-04-25T21:40:40.227Z,11.09
2023-04-25T21:42:44.847Z,11.07
2023-04-25T21:44:46.702Z,10.98
2023-04-25T21:46:48.738Z,10.90
2023-04-25T21:48:51.855Z,11.09
2023-04-25T21:50:55.912Z,11.16
2023-04-25T21:52:59.148Z,10.98
2023-04-25T21:55:03.386Z,11.14
2023-04-25T21:57:05.219Z,11.19
2023-04-25T21:59:07.101Z,11.01
2023-04-25T22:01:10.020Z,11.08
2023-04-25T22:03:14.498Z,10.77
2023-04-25T22:05:17.462Z,10.81
2023-04-25T22:07:19.370Z,10.83
2023-04-25T22:09:21.353Z,10.94
2023-04-25T22:11:26.521Z,11.04
2023-04-25T22:13:29.214Z,11.05
2023-04-25T22:15:31.234Z,10.94
2023-04-25T22:17:33.555Z,10.66
2023-04-25T22:19:37.409Z,10.73
2023-04-25T22:21:39.335Z,10.78
2023-04-25T22:23:41.240Z,10.54
2023-04-25T22:25:43.164Z,10.53
2023-04-25T22:27:48.387Z,10.41
2023-04-25T22:29:53.463Z,10.63
2023-04-25T22:31:55.423Z,10.44
2023-04-25T22:33:57.461Z,10.62
2023-04-25T22:35:59.507Z,10.46
2023-04-25T22:38:01.781Z,10.45
2023-04-25T22:40:09.227Z,10.28
2023-04-25T22:42:11.120Z,10.46
2023-04-25T22:44:12.976Z,10.48
2023-04-25T22:46:19.121Z,10.25
2023-04-25T22:48:21.491Z,10.10
2023-04-25T22:50:23.324Z,10.22
2023-04-25T22:52:25.139Z,10.23
2023-04-25T22:54:27.614Z,10.23
2023-04-25T22:56:30.536Z,10.02
2023-04-25T22:58:32.861Z,10.01
2023-04-25T23:00:35.524Z,10.24
2023-04-25T23:02:37.508Z,10.25
2023-04-25T23:04:39.476Z,10.32
2023-04-25T23:06:41.233Z,10.35
2023-04-25T23:08:43.855Z,10.32
2023-04-25T23:10:45.669Z,10.18
2023-04-25T23:12:47.699Z,10.39
2023-04-25T23:14:52.050Z,10.37
2023-04-25T23:16:55.464Z,10.31
2023-04-25T23:18:57.408Z,10.26
2023-04-25T23:20:59.536Z,10.36
2023-04-25T23:23:03.992Z,10.43
2023-04-25T23:25:08.941Z,10.32
2023-04-25T23:27:10.865Z,10.43
2023-04-25T23:29:12.609Z,10.19
2023-04-25T23:31:14.492Z,10.47
2023-04-25T23:33:16.384Z,10.41
2023-04-25T23:35:18.318Z,10.48
2023-04-25T23:37:20.133Z,10.37
2023-04-25T23:39:21.912Z,10.37
2023-04-25T23:41:23.723Z,10.25
2023-04-25T23:43:25.593Z,10.18
2023-04-25T23:45:27.446Z,10.41
2023-04-25T23:47:29.251Z,10.18
2023-04-25T23:49:33.069Z,10.26
2023-04-25T23:51:34.885Z,10.23
2023-04-25T23:53:36.893Z,10.06
2023-04-25T23:55:38.995Z,10.08
2023-04-25T23:57:44.561Z,10.23
2023-04-25T23:59:46.566Z,10.11
